createdAt,value
2022-10-23T00:01:17.898Z,13.80
2022-10-23T00:03:45.689Z,13.80
2022-10-23T00:06:13.522Z,13.70
2022-10-23T00:08:41.160Z,13.70
2022-10-23T00:11:12.978Z,13.70
2022-10-23T00:13:40.664Z,13.70
2022-10-23T00:16:08.521Z,13.70
2022-10-23T00:18:35.875Z,13.70
2022-10-23T00:21:03.316Z,14.30
2022-10-23T00:23:49.308Z,13.60
2022-10-23T00:26:16.498Z,15.90
2022-10-23T00:28:45.468Z,14.80
2022-10-23T00:31:12.833Z,13.50
2022-10-23T00:33:39.874Z,13.50
2022-10-23T00:36:08.065Z,13.40
2022-10-23T00:38:35.289Z,13.40
2022-10-23T00:41:02.415Z,13.80
2022-10-23T00:43:31.774Z,13.20
2022-10-23T00:45:59.349Z,14.70
2022-10-23T00:48:27.751Z,15.30
2022-10-23T00:50:55.280Z,13.80
2022-10-23T00:53:22.803Z,13.20
2022-10-23T00:55:53.159Z,15.00
2022-10-23T00:58:21.515Z,12.90
2022-10-23T01:00:49.892Z,11.20
2022-10-23T01:03:19.317Z,14.50
2022-10-23T01:06:04.827Z,13.00
2022-10-23T01:08:49.135Z,13.00
2022-10-23T01:11:24.495Z,13.00
2022-10-23T01:14:05.643Z,12.90
2022-10-23T01:16:58.397Z,13.00
2022-10-23T01:19:34.802Z,12.90
2022-10-23T01:22:26.503Z,12.90
2022-10-23T01:25:25.390Z,12.90
2022-10-23T01:28:00.465Z,12.90
2022-10-23T01:30:27.300Z,12.50
2022-10-23T01:33:02.053Z,12.90
2022-10-23T01:35:33.977Z,12.90
2022-10-23T01:38:11.914Z,12.90
2022-10-23T01:41:03.163Z,13.10
2022-10-23T01:43:45.872Z,12.80
2022-10-23T01:46:16.561Z,12.80
2022-10-23T01:48:51.487Z,13.10
2022-10-23T01:51:20.994Z,12.80
2022-10-23T01:53:49.882Z,12.70
2022-10-23T01:56:21.707Z,13.70
2022-10-23T01:58:52.507Z,12.70
2022-10-23T02:01:23.357Z,12.70
2022-10-23T02:03:51.555Z,12.70
2022-10-23T02:06:18.724Z,12.70
2022-10-23T02:08:46.020Z,12.90
2022-10-23T02:11:18.773Z,12.80
2022-10-23T02:13:55.507Z,12.60
2022-10-23T02:16:26.698Z,12.60
2022-10-23T02:19:15.342Z,13.40
2022-10-23T02:21:55.421Z,12.60
2022-10-23T02:24:36.203Z,12.60
2022-10-23T02:27:08.694Z,13.80
2022-10-23T02:29:40.718Z,13.80
2022-10-23T02:32:09.942Z,14.10
2022-10-23T02:34:36.780Z,12.60
2022-10-23T02:37:03.841Z,12.50
2022-10-23T02:39:30.839Z,12.50
2022-10-23T02:42:11.369Z,12.50
2022-10-23T02:44:59.335Z,12.60
2022-10-23T02:47:57.003Z,12.50
2022-10-23T02:50:36.224Z,12.50
2022-10-23T02:53:12.127Z,12.50
2022-10-23T02:55:46.876Z,12.50
2022-10-23T02:58:24.211Z,12.50
2022-10-23T03:00:56.177Z,12.50
2022-10-23T03:03:30.138Z,12.50
2022-10-23T03:05:57.082Z,12.50
2022-10-23T03:08:25.130Z,12.50
2022-10-23T03:10:52.217Z,12.50
2022-10-23T03:13:19.676Z,12.50
2022-10-23T03:15:46.433Z,13.40
2022-10-23T03:18:13.287Z,12.40
2022-10-23T03:20:40.007Z,12.30
2022-10-23T03:23:06.950Z,12.40
2022-10-23T03:25:33.644Z,12.40
2022-10-23T03:28:00.403Z,13.90
2022-10-23T03:30:27.198Z,12.40
2022-10-23T03:32:53.900Z,14.10
2022-10-23T03:35:20.719Z,12.40
2022-10-23T03:37:47.442Z,13.60
2022-10-23T03:40:14.330Z,12.40
2022-10-23T03:42:41.045Z,12.40
2022-10-23T03:45:08.159Z,12.70
2022-10-23T03:47:35.607Z,12.40
2022-10-23T03:50:02.502Z,12.50
2022-10-23T03:52:29.253Z,12.40
2022-10-23T03:54:56.038Z,12.50
2022-10-23T03:57:24.193Z,12.50
2022-10-23T03:59:50.963Z,12.50
2022-10-23T04:02:18.649Z,12.50
2022-10-23T04:04:45.390Z,12.50
2022-10-23T04:07:12.116Z,12.50
2022-10-23T04:09:38.870Z,12.50
2022-10-23T04:12:06.171Z,12.50
2022-10-23T04:14:32.946Z,12.50
2022-10-23T04:17:00.050Z,12.50
2022-10-23T04:19:26.882Z,12.50
2022-10-23T04:21:53.592Z,12.50
2022-10-23T04:24:20.658Z,12.50
2022-10-23T04:26:47.371Z,12.50
2022-10-23T04:29:14.139Z,12.50
2022-10-23T04:31:40.912Z,12.50
2022-10-23T04:34:07.759Z,13.50
2022-10-23T04:36:34.444Z,12.50
2022-10-23T04:39:01.171Z,13.30
2022-10-23T04:41:27.853Z,12.60
2022-10-23T04:43:54.531Z,12.40
2022-10-23T04:46:21.275Z,12.50
2022-10-23T04:48:47.996Z,14.10
2022-10-23T04:51:14.924Z,12.40
2022-10-23T04:53:41.607Z,12.40
2022-10-23T04:56:12.438Z,12.40
2022-10-23T04:58:39.203Z,12.40
2022-10-23T05:01:07.377Z,12.40
2022-10-23T05:03:34.410Z,12.40
2022-10-23T05:06:01.130Z,12.40
2022-10-23T05:08:28.329Z,12.30
2022-10-23T05:10:55.050Z,12.40
2022-10-23T05:13:21.915Z,12.40
2022-10-23T05:15:50.373Z,12.40
2022-10-23T05:18:25.656Z,12.40
2022-10-23T05:20:56.657Z,12.40
2022-10-23T05:23:24.885Z,12.40
2022-10-23T05:25:51.753Z,12.40
2022-10-23T05:28:18.586Z,12.30
2022-10-23T05:30:45.788Z,12.30
2022-10-23T05:33:12.596Z,12.40
2022-10-23T05:35:41.735Z,12.40
2022-10-23T05:38:09.076Z,12.30
2022-10-23T05:40:36.011Z,12.30
2022-10-23T05:43:02.808Z,12.40
2022-10-23T05:45:29.523Z,12.30
2022-10-23T05:48:05.604Z,12.30
2022-10-23T05:50:38.394Z,12.40
2022-10-23T05:53:05.076Z,13.20
2022-10-23T05:55:32.475Z,12.30
2022-10-23T05:58:01.327Z,12.40
2022-10-23T06:00:28.078Z,12.40
2022-10-23T06:02:54.788Z,12.40
2022-10-23T06:05:21.817Z,12.40
2022-10-23T06:07:48.517Z,12.40
2022-10-23T06:10:15.399Z,12.70
2022-10-23T06:12:42.260Z,12.50
2022-10-23T06:15:10.389Z,12.40
2022-10-23T06:17:38.040Z,12.40
2022-10-23T06:20:05.193Z,14.10
2022-10-23T06:22:31.991Z,12.40
2022-10-23T06:24:58.691Z,12.40
2022-10-23T06:27:25.898Z,12.50
2022-10-23T06:29:52.600Z,12.50
2022-10-23T06:32:19.455Z,12.50
2022-10-23T06:34:46.180Z,12.50
2022-10-23T06:37:12.952Z,12.30
2022-10-23T06:39:40.589Z,12.60
2022-10-23T06:42:07.644Z,13.30
2022-10-23T06:44:34.437Z,12.60
2022-10-23T06:47:02.257Z,12.60
2022-10-23T06:49:28.992Z,13.90
2022-10-23T06:51:55.781Z,12.70
2022-10-23T06:54:22.577Z,11.30
2022-10-23T06:56:49.372Z,14.10
2022-10-23T06:59:16.141Z,12.70
2022-10-23T07:01:42.984Z,12.90
2022-10-23T07:04:09.923Z,12.80
2022-10-23T07:06:36.632Z,12.80
2022-10-23T07:09:03.626Z,12.70
2022-10-23T07:11:30.327Z,12.80
2022-10-23T07:13:57.154Z,12.80
2022-10-23T07:16:24.299Z,12.80
2022-10-23T07:18:59.698Z,12.90
2022-10-23T07:21:32.120Z,12.80
2022-10-23T07:23:58.900Z,12.80
2022-10-23T07:26:25.648Z,12.80
2022-10-23T07:28:55.224Z,12.90
2022-10-23T07:31:25.764Z,12.90
2022-10-23T07:33:54.822Z,12.90
2022-10-23T07:36:21.794Z,12.90
2022-10-23T07:38:48.508Z,12.90
2022-10-23T07:41:15.869Z,13.00
2022-10-23T07:43:42.628Z,13.00
2022-10-23T07:46:10.002Z,13.00
2022-10-23T07:48:37.862Z,13.10
2022-10-23T07:51:12.072Z,13.10
2022-10-23T07:53:39.295Z,14.30
2022-10-23T07:56:18.523Z,13.10
2022-10-23T07:58:45.366Z,13.20
2022-10-23T08:01:30.656Z,13.10
2022-10-23T08:03:57.588Z,13.10
2022-10-23T08:06:24.454Z,13.10
2022-10-23T08:08:51.201Z,13.10
2022-10-23T08:11:24.910Z,13.10
2022-10-23T08:13:52.931Z,13.20
2022-10-23T08:16:19.624Z,13.30
2022-10-23T08:18:48.266Z,13.40
2022-10-23T08:21:15.451Z,13.10
2022-10-23T08:23:42.666Z,13.20
2022-10-23T08:26:10.203Z,13.30
2022-10-23T08:28:37.205Z,13.20
2022-10-23T08:31:13.879Z,13.20
2022-10-23T08:33:40.911Z,13.20
2022-10-23T08:36:18.731Z,13.20
2022-10-23T08:38:45.720Z,13.20
2022-10-23T08:41:32.783Z,13.20
2022-10-23T08:44:02.336Z,13.20
2022-10-23T08:46:34.865Z,13.30
2022-10-23T08:49:24.506Z,13.30
2022-10-23T08:51:55.119Z,13.40
2022-10-23T08:54:39.274Z,13.40
2022-10-23T08:57:14.052Z,13.40
2022-10-23T08:59:44.333Z,13.50
2022-10-23T09:02:19.938Z,13.40
2022-10-23T09:04:48.866Z,13.60
2022-10-23T09:07:27.460Z,13.70
2022-10-23T09:10:42.811Z,13.50
2022-10-23T09:13:36.741Z,13.50
2022-10-23T09:16:25.389Z,13.60
2022-10-23T09:18:53.076Z,13.60
2022-10-23T09:21:20.945Z,13.70
2022-10-23T09:23:47.742Z,13.70
2022-10-23T09:26:18.675Z,13.70
2022-10-23T09:28:56.886Z,13.80
2022-10-23T09:31:23.598Z,13.80
2022-10-23T09:33:59.911Z,13.80
2022-10-23T09:36:29.355Z,13.90
2022-10-23T09:39:01.697Z,15.20
2022-10-23T09:41:36.493Z,13.90
2022-10-23T09:44:24.887Z,13.90
2022-10-23T09:46:59.444Z,13.90
2022-10-23T09:49:29.309Z,13.90
2022-10-23T09:52:11.832Z,13.90
2022-10-23T09:54:44.166Z,13.90
2022-10-23T09:57:29.839Z,13.90
2022-10-23T10:00:07.468Z,14.00
2022-10-23T10:02:36.300Z,14.00
2022-10-23T10:05:28.280Z,14.00
2022-10-23T10:08:06.343Z,14.00
2022-10-23T10:10:39.859Z,14.10
2022-10-23T10:13:24.498Z,14.00
2022-10-23T10:15:58.287Z,14.10
2022-10-23T10:18:45.224Z,14.10
2022-10-23T10:21:24.213Z,16.30
2022-10-23T10:24:22.259Z,14.20
2022-10-23T10:26:51.833Z,14.20
2022-10-23T10:29:30.010Z,14.40
2022-10-23T10:32:14.721Z,14.40
2022-10-23T10:34:53.647Z,14.50
2022-10-23T10:37:34.589Z,14.50
2022-10-23T10:40:28.012Z,14.60
2022-10-23T10:43:17.266Z,14.60
2022-10-23T10:45:49.198Z,14.70
2022-10-23T10:48:49.751Z,14.70
2022-10-23T10:51:30.154Z,14.80
2022-10-23T10:54:17.328Z,14.90
2022-10-23T10:56:47.273Z,14.90
2022-10-23T10:59:17.141Z,14.90
2022-10-23T11:01:52.864Z,14.90
2022-10-23T11:44:01.530Z,15.80
2022-10-23T11:46:32.610Z,15.50
2022-10-23T11:49:02.528Z,15.50
2022-10-23T11:51:32.664Z,15.50
2022-10-23T11:54:29.086Z,15.60
2022-10-23T11:57:10.335Z,15.60
2022-10-23T11:59:49.833Z,15.60
2022-10-23T12:02:38.738Z,15.60
2022-10-23T12:05:09.719Z,15.60
2022-10-23T12:07:39.483Z,15.60
2022-10-23T12:10:19.497Z,15.60
2022-10-23T12:12:57.146Z,16.00
2022-10-23T12:15:25.973Z,15.70
2022-10-23T12:18:29.693Z,15.80
2022-10-23T12:21:01.824Z,15.80
2022-10-23T12:23:48.321Z,15.80
2022-10-23T12:26:55.141Z,15.80
2022-10-23T12:29:46.918Z,15.80
2022-10-23T12:32:42.082Z,15.80
2022-10-23T12:35:26.097Z,15.80
2022-10-23T12:38:16.079Z,15.80
2022-10-23T12:40:51.686Z,15.80
2022-10-23T12:43:31.299Z,15.80
2022-10-23T12:46:26.394Z,15.80
2022-10-23T12:48:54.752Z,15.80
2022-10-23T12:51:24.966Z,15.80
2022-10-23T12:53:51.813Z,15.80
2022-10-23T12:56:19.207Z,15.80
2022-10-23T12:58:55.556Z,15.80
2022-10-23T13:01:34.870Z,15.80
2022-10-23T13:04:10.742Z,15.80
2022-10-23T13:06:39.133Z,15.80
2022-10-23T13:09:15.403Z,15.80
2022-10-23T13:11:42.927Z,15.80
2022-10-23T13:14:13.927Z,15.90
2022-10-23T13:16:40.625Z,15.90
2022-10-23T13:19:08.741Z,15.80
2022-10-23T13:21:36.038Z,15.80
2022-10-23T13:24:02.749Z,15.90
2022-10-23T13:26:34.892Z,16.70
2022-10-23T13:29:07.460Z,15.90
2022-10-23T13:31:36.825Z,15.90
2022-10-23T13:34:06.636Z,15.80
2022-10-23T13:36:37.459Z,15.90
2022-10-23T13:39:12.546Z,15.80
2022-10-23T13:41:44.768Z,15.80
2022-10-23T13:44:16.896Z,15.50
2022-10-23T13:46:44.211Z,15.70
2022-10-23T13:49:11.035Z,15.70
2022-10-23T13:51:44.517Z,15.80
2022-10-23T13:54:15.689Z,16.00
2022-10-23T13:56:42.536Z,15.70
2022-10-23T13:59:10.862Z,15.70
2022-10-23T14:01:37.870Z,15.70
2022-10-23T14:04:05.666Z,15.70
2022-10-23T14:06:33.533Z,15.70
2022-10-23T14:09:00.264Z,15.70
2022-10-23T14:11:26.941Z,15.70
2022-10-23T14:13:53.980Z,15.70
2022-10-23T14:16:21.608Z,15.70
2022-10-23T14:18:48.914Z,15.70
2022-10-23T14:21:17.991Z,15.70
2022-10-23T14:23:44.657Z,15.70
2022-10-23T14:26:17.597Z,15.80
2022-10-23T14:28:44.440Z,15.70
2022-10-23T14:31:17.082Z,16.70
2022-10-23T14:33:44.949Z,15.60
2022-10-23T14:36:12.406Z,15.70
2022-10-23T14:38:39.414Z,16.00
2022-10-23T14:41:13.954Z,15.60
2022-10-23T14:43:40.782Z,15.60
2022-10-23T14:46:15.939Z,15.60
2022-10-23T14:48:46.084Z,15.60
2022-10-23T14:51:40.945Z,16.20
2022-10-23T14:54:08.186Z,15.60
2022-10-23T14:56:37.910Z,16.40
2022-10-23T14:59:05.050Z,15.50
2022-10-23T15:01:35.081Z,15.50
2022-10-23T15:04:01.982Z,15.40
2022-10-23T15:06:28.927Z,15.40
2022-10-23T15:08:55.888Z,17.50
2022-10-23T15:11:23.965Z,17.10
2022-10-23T15:13:50.991Z,15.30
2022-10-23T15:16:21.005Z,15.20
2022-10-23T15:18:47.898Z,15.20
2022-10-23T15:21:15.212Z,15.20
2022-10-23T15:23:44.925Z,16.10
2022-10-23T15:26:25.578Z,16.10
2022-10-23T15:28:57.561Z,15.10
2022-10-23T15:31:41.491Z,15.00
2022-10-23T15:34:10.716Z,14.90
2022-10-23T15:36:37.910Z,16.70
2022-10-23T15:39:09.517Z,14.90
2022-10-23T15:41:38.805Z,14.80
2022-10-23T15:44:07.509Z,14.70
2022-10-23T15:46:35.015Z,14.60
2022-10-23T15:49:01.971Z,16.40
2022-10-23T15:51:28.723Z,14.60
2022-10-23T15:53:57.054Z,14.50
2022-10-23T15:56:24.785Z,14.50
2022-10-23T15:58:51.720Z,16.50
2022-10-23T16:01:19.102Z,14.30
2022-10-23T16:03:46.157Z,14.30
2022-10-23T16:06:15.132Z,14.20
2022-10-23T16:08:43.936Z,14.20
2022-10-23T16:11:16.086Z,14.70
2022-10-23T16:13:43.664Z,14.10
2022-10-23T16:16:10.998Z,14.10
2022-10-23T16:18:38.127Z,14.70
2022-10-23T16:21:05.070Z,15.40
2022-10-23T16:23:33.344Z,13.80
2022-10-23T16:26:04.831Z,13.80
2022-10-23T16:28:31.983Z,13.80
2022-10-23T16:30:58.844Z,13.60
2022-10-23T16:33:25.827Z,13.60
2022-10-23T16:35:52.607Z,13.70
2022-10-23T16:38:20.745Z,13.50
2022-10-23T16:40:52.212Z,15.10
2022-10-23T16:43:19.273Z,13.40
2022-10-23T16:45:46.074Z,13.60
2022-10-23T16:48:13.233Z,13.50
2022-10-23T16:50:41.526Z,13.20
2022-10-23T16:53:08.362Z,13.30
2022-10-23T16:55:35.194Z,13.20
2022-10-23T16:58:02.215Z,13.20
2022-10-23T17:00:34.901Z,13.10
2022-10-23T17:03:05.586Z,13.10
2022-10-23T17:05:35.742Z,13.40
2022-10-23T17:08:02.472Z,13.10
2022-10-23T17:10:30.358Z,13.10
2022-10-23T17:12:57.096Z,13.00
2022-10-23T17:15:24.069Z,13.00
2022-10-23T17:17:51.086Z,13.00
2022-10-23T17:20:17.991Z,13.00
2022-10-23T17:22:44.674Z,13.00
2022-10-23T17:25:11.416Z,13.00
2022-10-23T17:27:38.130Z,12.90
2022-10-23T17:30:09.260Z,12.90
2022-10-23T17:32:38.541Z,12.90
2022-10-23T17:35:06.365Z,12.90
2022-10-23T17:37:33.302Z,12.90
2022-10-23T17:40:02.564Z,12.80
2022-10-23T17:42:29.629Z,12.90
2022-10-23T17:44:56.516Z,12.90
2022-10-23T17:47:23.280Z,12.90
2022-10-23T17:49:49.991Z,12.80
2022-10-23T17:52:16.910Z,12.80
2022-10-23T17:54:43.746Z,12.80
2022-10-23T17:57:10.526Z,12.90
2022-10-23T17:59:39.097Z,12.90
2022-10-23T18:02:05.992Z,12.80
2022-10-23T18:04:32.963Z,12.90
2022-10-23T18:06:59.676Z,12.90
2022-10-23T18:09:26.478Z,12.90
2022-10-23T18:11:53.307Z,12.90
2022-10-23T18:14:21.483Z,12.90
2022-10-23T18:16:48.825Z,12.90
2022-10-23T18:19:18.313Z,12.90
2022-10-23T18:21:45.945Z,12.90
2022-10-23T18:24:13.040Z,13.00
2022-10-23T18:26:41.649Z,13.00
2022-10-23T18:29:09.880Z,14.10
2022-10-23T18:31:38.200Z,13.00
2022-10-23T18:34:08.238Z,13.00
2022-10-23T18:36:39.645Z,13.10
2022-10-23T18:39:08.390Z,13.00
2022-10-23T18:41:39.126Z,13.40
2022-10-23T18:44:06.596Z,13.10
2022-10-23T18:46:33.797Z,14.00
2022-10-23T18:49:00.752Z,13.00
2022-10-23T18:51:31.505Z,13.00
2022-10-23T18:54:02.120Z,13.00
2022-10-23T18:56:28.835Z,13.00
2022-10-23T18:58:58.514Z,13.00
2022-10-23T19:01:27.280Z,13.00
2022-10-23T19:06:26.814Z,13.00
2022-10-23T19:08:53.607Z,13.00
2022-10-23T19:11:22.362Z,13.00
2022-10-23T19:13:49.580Z,13.00
2022-10-23T19:16:30.688Z,13.00
2022-10-23T19:19:01.679Z,12.90
2022-10-23T19:21:33.274Z,12.90
2022-10-23T19:24:07.538Z,13.60
2022-10-23T19:26:35.860Z,12.90
2022-10-23T19:29:04.604Z,13.00
2022-10-23T19:31:31.441Z,12.90
2022-10-23T19:33:58.126Z,14.20
2022-10-23T19:36:24.790Z,13.20
2022-10-23T19:38:52.069Z,12.90
2022-10-23T19:41:18.938Z,12.90
2022-10-23T19:43:45.882Z,12.90
2022-10-23T19:46:12.836Z,12.90
2022-10-23T19:48:44.689Z,12.90
2022-10-23T19:51:13.349Z,12.90
2022-10-23T19:53:41.348Z,13.20
2022-10-23T19:56:10.648Z,12.90
2022-10-23T19:58:38.551Z,12.90
2022-10-23T20:01:13.523Z,12.90
2022-10-23T20:03:41.835Z,12.90
2022-10-23T20:06:11.095Z,12.90
2022-10-23T20:08:38.040Z,12.90
2022-10-23T20:11:05.050Z,12.90
2022-10-23T20:13:32.083Z,12.90
2022-10-23T20:15:59.236Z,12.90
2022-10-23T20:18:26.284Z,12.90
2022-10-23T20:20:54.359Z,12.90
2022-10-23T20:23:21.127Z,12.80
2022-10-23T20:25:47.901Z,12.90
2022-10-23T20:28:15.333Z,12.80
2022-10-23T20:30:42.656Z,12.80
2022-10-23T20:33:09.482Z,12.80
2022-10-23T20:35:43.219Z,12.80
2022-10-23T20:38:10.361Z,12.80
2022-10-23T20:40:37.160Z,12.80
2022-10-23T20:43:04.314Z,12.70
2022-10-23T20:45:31.110Z,12.70
2022-10-23T20:47:58.723Z,12.70
2022-10-23T20:50:25.456Z,12.70
2022-10-23T20:52:52.229Z,12.70
2022-10-23T20:55:19.627Z,12.70
2022-10-23T20:57:46.741Z,12.70
2022-10-23T21:00:13.957Z,12.70
2022-10-23T21:02:47.018Z,12.70
2022-10-23T21:05:15.525Z,13.50
2022-10-23T21:07:42.202Z,12.70
2022-10-23T21:10:12.258Z,12.70
2022-10-23T21:12:38.948Z,12.70
2022-10-23T21:15:06.317Z,12.60
2022-10-23T21:17:36.215Z,12.60
2022-10-23T21:20:03.191Z,12.60
2022-10-23T21:22:29.997Z,12.60
2022-10-23T21:24:58.393Z,12.60
2022-10-23T21:27:25.083Z,12.60
2022-10-23T21:29:51.773Z,12.60
2022-10-23T21:32:20.285Z,12.80
2022-10-23T21:34:47.105Z,12.60
2022-10-23T21:37:14.628Z,12.50
2022-10-23T21:39:43.202Z,12.50
2022-10-23T21:42:10.858Z,12.50
2022-10-23T21:44:37.585Z,12.50
2022-10-23T21:47:04.548Z,12.40
2022-10-23T21:49:31.695Z,12.40
2022-10-23T21:51:58.439Z,12.40
2022-10-23T21:54:25.240Z,12.30
2022-10-23T21:56:53.936Z,12.40
2022-10-23T21:59:24.309Z,12.80
2022-10-23T22:01:52.041Z,12.30
2022-10-23T22:04:19.954Z,12.30
2022-10-23T22:06:49.620Z,12.30
2022-10-23T22:09:19.463Z,12.20
2022-10-23T22:11:48.017Z,12.20
2022-10-23T22:14:14.721Z,12.20
2022-10-23T22:16:42.284Z,12.20
2022-10-23T22:19:11.715Z,11.70
2022-10-23T22:21:39.200Z,12.30
2022-10-23T22:24:06.663Z,12.20
2022-10-23T22:26:39.683Z,12.20
2022-10-23T22:29:13.098Z,13.50
2022-10-23T22:31:44.162Z,12.20
2022-10-23T22:34:25.288Z,12.10
2022-10-23T22:37:01.002Z,12.20
2022-10-23T22:39:27.718Z,12.80
2022-10-23T22:41:54.409Z,12.20
2022-10-23T22:44:21.827Z,12.20
2022-10-23T22:46:48.880Z,11.70
2022-10-23T22:49:15.790Z,13.70
2022-10-23T22:51:42.722Z,12.20
2022-10-23T22:54:10.678Z,12.20
2022-10-23T22:56:37.382Z,12.10
2022-10-23T22:59:04.799Z,13.40
2022-10-23T23:01:38.591Z,12.20
2022-10-23T23:04:13.957Z,12.20
2022-10-23T23:06:52.454Z,12.20
2022-10-23T23:09:20.230Z,13.30
2022-10-23T23:11:53.133Z,12.10
2022-10-23T23:14:23.596Z,12.20
2022-10-23T23:16:52.664Z,12.20
2022-10-23T23:19:19.801Z,12.20
2022-10-23T23:21:46.954Z,12.20
2022-10-23T23:24:13.942Z,12.10
2022-10-23T23:26:40.709Z,12.10
2022-10-23T23:29:07.425Z,12.10
2022-10-23T23:31:34.511Z,12.10
2022-10-23T23:34:01.287Z,12.10
2022-10-23T23:36:29.121Z,12.10
2022-10-23T23:38:57.406Z,13.00
2022-10-23T23:41:26.321Z,12.10
2022-10-23T23:43:54.652Z,12.00
2022-10-23T23:46:22.734Z,12.00
2022-10-23T23:48:49.943Z,12.00
2022-10-23T23:51:19.387Z,12.00
2022-10-23T23:53:46.431Z,12.00
2022-10-23T23:56:13.552Z,12.00
2022-10-23T23:58:40.366Z,12.10
